sensor_id;sensor_type;location;lat;lon;timestamp;pressure;altitude;pressure_sealevel;temperature;humidity
53514;BME280;39768;54.148;12.174;2024-03-06T00:03:50;102025.53;;;3.17;55.99
53514;BME280;39768;54.148;12.174;2024-03-06T00:07:53;102028.22;;;3.05;55.76
53514;BME280;39768;54.148;12.174;2024-03-06T00:11:57;102033.53;;;3.19;55.98
53514;BME280;39768;54.148;12.174;2024-03-06T00:15:59;102034.41;;;3.18;55.55
53514;BME280;39768;54.148;12.174;2024-03-06T00:20:00;102036.19;;;3.17;56.05
53514;BME280;39768;54.148;12.174;2024-03-06T00:24:03;102040.63;;;3.20;56.07
53514;BME280;39768;54.148;12.174;2024-03-06T00:28:05;102041.56;;;3.16;56.19
53514;BME280;39768;54.148;12.174;2024-03-06T00:32:07;102035.31;;;3.23;55.92
53514;BME280;39768;54.148;12.174;2024-03-06T00:36:09;102046.00;;;3.17;56.55
53514;BME280;39768;54.148;12.174;2024-03-06T00:40:11;102051.28;;;3.18;57.18
53514;BME280;39768;54.148;12.174;2024-03-06T00:44:16;102045.97;;;3.32;55.58
53514;BME280;39768;54.148;12.174;2024-03-06T00:48:20;102041.53;;;3.42;55.76
53514;BME280;39768;54.148;12.174;2024-03-06T00:52:24;102045.97;;;3.35;56.37
53514;BME280;39768;54.148;12.174;2024-03-06T00:56:26;102048.63;;;3.12;57.22
53514;BME280;39768;54.148;12.174;2024-03-06T01:00:29;102052.19;;;3.45;56.35
53514;BME280;39768;54.148;12.174;2024-03-06T01:04:31;102056.59;;;3.62;55.01
53514;BME280;39768;54.148;12.174;2024-03-06T01:08:33;102063.72;;;3.56;55.85
53514;BME280;39768;54.148;12.174;2024-03-06T01:12:37;102067.28;;;3.61;55.79
53514;BME280;39768;54.148;12.174;2024-03-06T01:16:39;102065.47;;;3.83;54.28
53514;BME280;39768;54.148;12.174;2024-03-06T01:20:42;102072.59;;;3.68;55.06
53514;BME280;39768;54.148;12.174;2024-03-06T01:24:44;102068.16;;;3.55;55.37
53514;BME280;39768;54.148;12.174;2024-03-06T01:28:46;102074.38;;;3.10;56.64
53514;BME280;39768;54.148;12.174;2024-03-06T01:32:47;102081.47;;;3.08;58.05
53514;BME280;39768;54.148;12.174;2024-03-06T01:36:49;102087.66;;;2.96;58.55
53514;BME280;39768;54.148;12.174;2024-03-06T01:40:51;102087.63;;;2.92;58.64
53514;BME280;39768;54.148;12.174;2024-03-06T01:44:53;102085.81;;;2.77;59.08
53514;BME280;39768;54.148;12.174;2024-03-06T01:48:55;102088.59;;;3.15;58.85
53514;BME280;39768;54.148;12.174;2024-03-06T01:52:58;102087.66;;;3.10;58.23
53514;BME280;39768;54.148;12.174;2024-03-06T01:57:01;102088.56;;;3.50;56.33
53514;BME280;39768;54.148;12.174;2024-03-06T02:01:04;102095.69;;;3.45;55.67
53514;BME280;39768;54.148;12.174;2024-03-06T02:05:06;102093.91;;;3.52;55.57
53514;BME280;39768;54.148;12.174;2024-03-06T02:09:08;102097.47;;;3.57;55.67
53514;BME280;39768;54.148;12.174;2024-03-06T02:13:11;102097.47;;;3.75;55.41
53514;BME280;39768;54.148;12.174;2024-03-06T02:17:13;102105.44;;;3.67;55.67
53514;BME280;39768;54.148;12.174;2024-03-06T02:21:15;102108.13;;;3.60;56.04
53514;BME280;39768;54.148;12.174;2024-03-06T02:25:17;102103.66;;;3.63;56.63
53514;BME280;39768;54.148;12.174;2024-03-06T02:29:23;102104.56;;;3.71;56.43
53514;BME280;39768;54.148;12.174;2024-03-06T02:33:27;102110.78;;;3.84;55.09
53514;BME280;39768;54.148;12.174;2024-03-06T02:37:28;102117.88;;;3.87;54.57
53514;BME280;39768;54.148;12.174;2024-03-06T02:41:30;102123.22;;;3.85;55.30
53514;BME280;39768;54.148;12.174;2024-03-06T02:45:32;102115.19;;;3.81;54.66
53514;BME280;39768;54.148;12.174;2024-03-06T02:49:34;102113.44;;;3.54;56.32
53514;BME280;39768;54.148;12.174;2024-03-06T02:53:36;102125.88;;;3.71;55.81
53514;BME280;39768;54.148;12.174;2024-03-06T02:57:38;102129.44;;;3.86;55.59
53514;BME280;39768;54.148;12.174;2024-03-06T03:01:41;102134.75;;;3.90;54.33
53514;BME280;39768;54.148;12.174;2024-03-06T03:05:42;102129.44;;;3.87;54.49
53514;BME280;39768;54.148;12.174;2024-03-06T03:09:45;102132.97;;;3.85;55.12
53514;BME280;39768;54.148;12.174;2024-03-06T03:13:49;102132.97;;;3.68;55.92
53514;BME280;39768;54.148;12.174;2024-03-06T03:17:52;102132.97;;;3.62;55.63
53514;BME280;39768;54.148;12.174;2024-03-06T03:21:53;102134.75;;;3.64;55.87
53514;BME280;39768;54.148;12.174;2024-03-06T03:25:55;102139.22;;;3.71;55.83
53514;BME280;39768;54.148;12.174;2024-03-06T03:29:57;102142.75;;;3.84;55.00
53514;BME280;39768;54.148;12.174;2024-03-06T03:34:01;102141.84;;;3.17;56.58
53514;BME280;39768;54.148;12.174;2024-03-06T03:38:07;102146.66;;;2.16;64.92
53514;BME280;39768;54.148;12.174;2024-03-06T03:42:09;102142.28;;;2.20;66.39
53514;BME280;39768;54.148;12.174;2024-03-06T03:46:11;102153.16;;;2.69;61.37
53514;BME280;39768;54.148;12.174;2024-03-06T03:50:13;102161.06;;;2.52;63.97
53514;BME280;39768;54.148;12.174;2024-03-06T03:54:16;102160.06;;;2.31;64.55
53514;BME280;39768;54.148;12.174;2024-03-06T03:58:18;102168.41;;;3.11;61.48
53514;BME280;39768;54.148;12.174;2024-03-06T04:02:20;102166.69;;;3.23;60.16
53514;BME280;39768;54.148;12.174;2024-03-06T04:06:22;102165.81;;;3.29;58.35
53514;BME280;39768;54.148;12.174;2024-03-06T04:10:24;102172.00;;;3.14;58.68
53514;BME280;39768;54.148;12.174;2024-03-06T04:14:45;102177.28;;;3.11;59.75
53514;BME280;39768;54.148;12.174;2024-03-06T04:18:47;102181.69;;;2.95;59.77
53514;BME280;39768;54.148;12.174;2024-03-06T04:22:49;102197.66;;;2.97;60.02
53514;BME280;39768;54.148;12.174;2024-03-06T04:26:52;102196.50;;;2.49;61.96
53514;BME280;39768;54.148;12.174;2024-03-06T04:30:54;102198.66;;;3.35;58.55
53514;BME280;39768;54.148;12.174;2024-03-06T04:34:56;102203.78;;;2.81;60.43
53514;BME280;39768;54.148;12.174;2024-03-06T04:38:58;102207.28;;;2.71;62.04
53514;BME280;39768;54.148;12.174;2024-03-06T04:43:00;102212.34;;;2.32;63.21
53514;BME280;39768;54.148;12.174;2024-03-06T04:47:02;102212.28;;;2.22;64.93
53514;BME280;39768;54.148;12.174;2024-03-06T04:51:05;102219.03;;;3.23;60.93
53514;BME280;39768;54.148;12.174;2024-03-06T04:55:07;102229.78;;;3.59;57.72
53514;BME280;39768;54.148;12.174;2024-03-06T04:59:13;102228.88;;;3.65;56.56
53514;BME280;39768;54.148;12.174;2024-03-06T05:03:17;102229.25;;;2.41;60.50
53514;BME280;39768;54.148;12.174;2024-03-06T05:07:36;102225.78;;;2.54;62.92
53514;BME280;39768;54.148;12.174;2024-03-06T05:11:56;102242.56;;;2.47;62.34
53514;BME280;39768;54.148;12.174;2024-03-06T05:16:16;102248.31;;;3.15;60.91
53514;BME280;39768;54.148;12.174;2024-03-06T05:20:36;102254.56;;;3.34;59.01
53514;BME280;39768;54.148;12.174;2024-03-06T05:24:55;102256.22;;;3.03;58.32
53514;BME280;39768;54.148;12.174;2024-03-06T05:29:14;102257.28;;;3.43;57.70
53514;BME280;39768;54.148;12.174;2024-03-06T05:33:35;102261.41;;;2.77;61.97
53514;BME280;39768;54.148;12.174;2024-03-06T05:37:54;102269.75;;;3.64;57.18
53514;BME280;39768;54.148;12.174;2024-03-06T05:42:14;102281.31;;;3.80;56.39
53514;BME280;39768;54.148;12.174;2024-03-06T05:46:34;102275.72;;;2.96;60.60
53514;BME280;39768;54.148;12.174;2024-03-06T05:50:53;102284.69;;;3.21;59.67
53514;BME280;39768;54.148;12.174;2024-03-06T05:55:14;102280.44;;;3.70;57.70
53514;BME280;39768;54.148;12.174;2024-03-06T05:59:33;102290.63;;;2.73;61.73
53514;BME280;39768;54.148;12.174;2024-03-06T06:03:35;102292.53;;;2.90;61.24
53514;BME280;39768;54.148;12.174;2024-03-06T06:07:36;102301.72;;;3.62;58.64
53514;BME280;39768;54.148;12.174;2024-03-06T06:11:41;102305.88;;;2.96;61.01
53514;BME280;39768;54.148;12.174;2024-03-06T06:15:42;102308.81;;;3.54;58.87
53514;BME280;39768;54.148;12.174;2024-03-06T06:19:44;102320.16;;;3.09;59.04
53514;BME280;39768;54.148;12.174;2024-03-06T06:23:46;102324.81;;;3.68;57.29
53514;BME280;39768;54.148;12.174;2024-03-06T06:27:47;102323.97;;;3.80;56.07
53514;BME280;39768;54.148;12.174;2024-03-06T06:31:50;102330.03;;;3.28;58.58
53514;BME280;39768;54.148;12.174;2024-03-06T06:35:52;102340.44;;;2.92;60.18
53514;BME280;39768;54.148;12.174;2024-03-06T06:39:53;102344.03;;;2.97;59.55
53514;BME280;39768;54.148;12.174;2024-03-06T06:43:55;102341.38;;;2.95;60.96
53514;BME280;39768;54.148;12.174;2024-03-06T06:47:56;102348.34;;;2.78;61.85
53514;BME280;39768;54.148;12.174;2024-03-06T06:51:58;102356.38;;;2.83;62.00
53514;BME280;39768;54.148;12.174;2024-03-06T06:55:59;102352.16;;;3.15;61.68
53514;BME280;39768;54.148;12.174;2024-03-06T07:00:02;102357.34;;;2.97;61.43
53514;BME280;39768;54.148;12.174;2024-03-06T07:04:12;102364.78;;;3.65;58.78
53514;BME280;39768;54.148;12.174;2024-03-06T07:08:13;102368.31;;;3.62;58.89
53514;BME280;39768;54.148;12.174;2024-03-06T07:12:15;102371.44;;;1.90;69.01
53514;BME280;39768;54.148;12.174;2024-03-06T07:16:17;102371.09;;;2.41;66.46
53514;BME280;39768;54.148;12.174;2024-03-06T07:20:18;102373.97;;;2.69;64.52
53514;BME280;39768;54.148;12.174;2024-03-06T07:24:20;102377.25;;;3.80;58.42
53514;BME280;39768;54.148;12.174;2024-03-06T07:28:21;102377.03;;;2.16;71.03
53514;BME280;39768;54.148;12.174;2024-03-06T07:32:23;102384.91;;;1.33;73.26
53514;BME280;39768;54.148;12.174;2024-03-06T07:36:24;102387.91;;;1.60;74.10
53514;BME280;39768;54.148;12.174;2024-03-06T07:40:26;102391.03;;;1.29;74.41
53514;BME280;39768;54.148;12.174;2024-03-06T07:44:28;102396.56;;;1.44;71.38
53514;BME280;39768;54.148;12.174;2024-03-06T07:48:29;102398.75;;;2.64;69.38
53514;BME280;39768;54.148;12.174;2024-03-06T07:52:31;102402.66;;;2.09;70.71
53514;BME280;39768;54.148;12.174;2024-03-06T07:56:33;102416.66;;;2.81;66.35
53514;BME280;39768;54.148;12.174;2024-03-06T08:00:35;102412.47;;;3.18;63.58
53514;BME280;39768;54.148;12.174;2024-03-06T08:04:36;102424.44;;;4.06;58.49
53514;BME280;39768;54.148;12.174;2024-03-06T08:08:42;102427.88;;;3.72;60.12
53514;BME280;39768;54.148;12.174;2024-03-06T08:12:45;102434.22;;;4.07;59.00
53514;BME280;39768;54.148;12.174;2024-03-06T08:16:49;102437.78;;;4.00;56.92
53514;BME280;39768;54.148;12.174;2024-03-06T08:20:51;102450.22;;;2.66;61.72
53514;BME280;39768;54.148;12.174;2024-03-06T08:24:54;102447.69;;;4.53;57.09
53514;BME280;39768;54.148;12.174;2024-03-06T08:28:56;102454.84;;;4.60;54.95
53514;BME280;39768;54.148;12.174;2024-03-06T08:32:58;102457.50;;;4.83;54.54
53514;BME280;39768;54.148;12.174;2024-03-06T08:36:59;102460.16;;;5.15;52.74
53514;BME280;39768;54.148;12.174;2024-03-06T08:41:01;102464.63;;;5.08;52.73
53514;BME280;39768;54.148;12.174;2024-03-06T08:45:03;102473.50;;;5.41;51.94
53514;BME280;39768;54.148;12.174;2024-03-06T08:49:04;102483.28;;;5.57;49.24
53514;BME280;39768;54.148;12.174;2024-03-06T08:53:10;102486.84;;;5.64;50.00
53514;BME280;39768;54.148;12.174;2024-03-06T08:57:12;102494.91;;;4.92;50.22
53514;BME280;39768;54.148;12.174;2024-03-06T09:01:14;102482.44;;;4.79;50.29
53514;BME280;39768;54.148;12.174;2024-03-06T09:05:16;102491.63;;;2.43;53.77
53514;BME280;39768;54.148;12.174;2024-03-06T09:09:17;102506.00;;;3.65;50.84
53514;BME280;39768;54.148;12.174;2024-03-06T09:13:19;102506.66;;;3.29;52.08
53514;BME280;39768;54.148;12.174;2024-03-06T09:17:20;102516.00;;;4.12;51.25
53514;BME280;39768;54.148;12.174;2024-03-06T09:21:22;102514.09;;;3.82;51.08
53514;BME280;39768;54.148;12.174;2024-03-06T09:25:24;102517.09;;;3.03;52.52
53514;BME280;39768;54.148;12.174;2024-03-06T09:29:30;102526.50;;;3.80;49.84
53514;BME280;39768;54.148;12.174;2024-03-06T09:33:32;102541.19;;;5.09;46.21
53514;BME280;39768;54.148;12.174;2024-03-06T09:37:33;102537.56;;;4.60;47.14
53514;BME280;39768;54.148;12.174;2024-03-06T09:41:35;102540.22;;;5.97;44.48
53514;BME280;39768;54.148;12.174;2024-03-06T09:45:36;102552.78;;;5.22;44.36
53514;BME280;39768;54.148;12.174;2024-03-06T09:49:39;102563.47;;;5.56;44.29
53514;BME280;39768;54.148;12.174;2024-03-06T09:53:41;102555.34;;;6.07;43.22
53514;BME280;39768;54.148;12.174;2024-03-06T09:57:44;102552.78;;;5.19;44.53
53514;BME280;39768;54.148;12.174;2024-03-06T10:01:50;102561.66;;;4.94;45.69
53514;BME280;39768;54.148;12.174;2024-03-06T10:05:54;102560.75;;;5.11;44.64
53514;BME280;39768;54.148;12.174;2024-03-06T10:09:57;102571.50;;;5.50;45.93
53514;BME280;39768;54.148;12.174;2024-03-06T10:13:59;102582.84;;;6.43;43.00
53514;BME280;39768;54.148;12.174;2024-03-06T10:18:14;102579.34;;;6.27;42.07
53514;BME280;39768;54.148;12.174;2024-03-06T10:22:18;102579.47;;;5.19;44.56
53514;BME280;39768;54.148;12.174;2024-03-06T10:26:19;102573.25;;;5.19;45.56
53514;BME280;39768;54.148;12.174;2024-03-06T10:30:23;102573.25;;;5.31;45.37
53514;BME280;39768;54.148;12.174;2024-03-06T10:34:26;102570.44;;;4.47;48.02
53514;BME280;39768;54.148;12.174;2024-03-06T10:38:30;102580.31;;;4.79;45.65
53514;BME280;39768;54.148;12.174;2024-03-06T10:42:35;102588.16;;;6.46;42.28
53514;BME280;39768;54.148;12.174;2024-03-06T10:46:37;102574.88;;;4.53;45.66
53514;BME280;39768;54.148;12.174;2024-03-06T10:50:40;102579.84;;;3.81;48.91
53514;BME280;39768;54.148;12.174;2024-03-06T10:54:48;102573.06;;;4.33;48.20
53514;BME280;39768;54.148;12.174;2024-03-06T10:58:50;102572.34;;;3.28;50.34
53514;BME280;39768;54.148;12.174;2024-03-06T11:02:53;102572.81;;;3.95;48.43
53514;BME280;39768;54.148;12.174;2024-03-06T11:06:56;102583.94;;;5.19;44.69
53514;BME280;39768;54.148;12.174;2024-03-06T11:11:19;102577.81;;;3.47;48.82
53514;BME280;39768;54.148;12.174;2024-03-06T11:15:22;102584.22;;;3.70;47.42
53514;BME280;39768;54.148;12.174;2024-03-06T11:19:24;102589.31;;;5.64;45.22
53514;BME280;39768;54.148;12.174;2024-03-06T11:23:26;102586.59;;;5.31;44.06
53514;BME280;39768;54.148;12.174;2024-03-06T11:27:28;102592.81;;;5.15;44.48
53514;BME280;39768;54.148;12.174;2024-03-06T11:31:30;102590.13;;;5.10;44.64
53514;BME280;39768;54.148;12.174;2024-03-06T11:35:31;102587.50;;;5.31;42.73
53514;BME280;39768;54.148;12.174;2024-03-06T11:39:34;102589.28;;;5.23;42.52
53514;BME280;39768;54.148;12.174;2024-03-06T11:43:44;102588.84;;;6.94;41.38
53514;BME280;39768;54.148;12.174;2024-03-06T11:47:56;102585.69;;;5.00;42.66
53514;BME280;39768;54.148;12.174;2024-03-06T11:52:04;102598.19;;;5.72;43.09
53514;BME280;39768;54.148;12.174;2024-03-06T11:56:06;102591.94;;;5.90;41.76
53514;BME280;39768;54.148;12.174;2024-03-06T12:00:11;102592.50;;;6.79;41.24
53514;BME280;39768;54.148;12.174;2024-03-06T12:04:14;102598.66;;;6.92;40.88
53514;BME280;39768;54.148;12.174;2024-03-06T12:08:15;102600.13;;;7.35;40.29
53514;BME280;39768;54.148;12.174;2024-03-06T12:12:17;102603.00;;;7.12;39.93
53514;BME280;39768;54.148;12.174;2024-03-06T12:16:19;102596.38;;;5.13;45.22
53514;BME280;39768;54.148;12.174;2024-03-06T12:20:20;102602.56;;;6.17;42.61
53514;BME280;39768;54.148;12.174;2024-03-06T12:24:22;102592.81;;;4.93;44.67
53514;BME280;39768;54.148;12.174;2024-03-06T12:28:24;102597.25;;;4.91;44.21
53514;BME280;39768;54.148;12.174;2024-03-06T12:32:27;102593.63;;;6.20;43.20
53514;BME280;39768;54.148;12.174;2024-03-06T12:36:31;102604.44;;;7.59;40.31
53514;BME280;39768;54.148;12.174;2024-03-06T12:40:33;102598.16;;;5.95;41.57
53514;BME280;39768;54.148;12.174;2024-03-06T12:44:35;102601.25;;;7.05;38.36
53514;BME280;39768;54.148;12.174;2024-03-06T12:48:37;102590.84;;;7.79;38.76
53514;BME280;39768;54.148;12.174;2024-03-06T12:52:39;102599.56;;;8.02;36.89
53514;BME280;39768;54.148;12.174;2024-03-06T12:56:41;102594.53;;;8.48;37.65
53514;BME280;39768;54.148;12.174;2024-03-06T13:00:43;102592.41;;;8.76;37.04
53514;BME280;39768;54.148;12.174;2024-03-06T13:04:45;102598.06;;;7.74;38.43
53514;BME280;39768;54.148;12.174;2024-03-06T13:08:47;102586.66;;;8.36;38.96
53514;BME280;39768;54.148;12.174;2024-03-06T13:12:49;102588.47;;;8.33;39.82
53514;BME280;39768;54.148;12.174;2024-03-06T13:16:54;102584.78;;;7.55;40.88
53514;BME280;39768;54.148;12.174;2024-03-06T13:20:56;102585.44;;;6.69;43.17
53514;BME280;39768;54.148;12.174;2024-03-06T13:25:00;102563.09;;;4.10;49.00
53514;BME280;39768;54.148;12.174;2024-03-06T13:29:02;102566.13;;;5.07;46.44
53514;BME280;39768;54.148;12.174;2024-03-06T13:33:05;102568.81;;;5.22;47.65
53514;BME280;39768;54.148;12.174;2024-03-06T13:37:07;102580.38;;;5.79;47.04
53514;BME280;39768;54.148;12.174;2024-03-06T13:41:11;102582.13;;;5.91;45.29
53514;BME280;39768;54.148;12.174;2024-03-06T13:45:13;102566.75;;;4.21;47.39
53514;BME280;39768;54.148;12.174;2024-03-06T13:49:38;102571.47;;;5.77;46.38
53514;BME280;39768;54.148;12.174;2024-03-06T13:53:40;102579.47;;;5.81;46.37
53514;BME280;39768;54.148;12.174;2024-03-06T13:57:42;102584.78;;;4.87;48.75
53514;BME280;39768;54.148;12.174;2024-03-06T14:01:44;102576.75;;;4.87;48.71
53514;BME280;39768;54.148;12.174;2024-03-06T14:05:48;102588.41;;;5.82;46.44
53514;BME280;39768;54.148;12.174;2024-03-06T14:09:50;102588.38;;;5.76;46.13
53514;BME280;39768;54.148;12.174;2024-03-06T14:13:52;102582.06;;;6.10;46.22
53514;BME280;39768;54.148;12.174;2024-03-06T14:17:54;102595.25;;;6.70;44.24
53514;BME280;39768;54.148;12.174;2024-03-06T14:21:56;102580.41;;;5.64;46.49
53514;BME280;39768;54.148;12.174;2024-03-06T14:26:02;102588.38;;;5.76;47.94
53514;BME280;39768;54.148;12.174;2024-03-06T14:30:05;102573.22;;;5.92;48.33
53514;BME280;39768;54.148;12.174;2024-03-06T14:34:10;102578.59;;;5.17;50.22
53514;BME280;39768;54.148;12.174;2024-03-06T14:38:12;102594.47;;;6.39;48.34
53514;BME280;39768;54.148;12.174;2024-03-06T14:42:14;102586.56;;;5.90;49.30
53514;BME280;39768;54.148;12.174;2024-03-06T14:46:16;102591.03;;;5.91;49.12
53514;BME280;39768;54.148;12.174;2024-03-06T14:50:19;102583.81;;;4.62;51.37
53514;BME280;39768;54.148;12.174;2024-03-06T14:54:21;102593.72;;;5.85;48.95
53514;BME280;39768;54.148;12.174;2024-03-06T14:58:27;102592.84;;;5.40;50.47
53514;BME280;39768;54.148;12.174;2024-03-06T15:02:28;102588.34;;;4.97;54.99
53514;BME280;39768;54.148;12.174;2024-03-06T15:06:30;102586.69;;;3.47;56.98
53514;BME280;39768;54.148;12.174;2024-03-06T15:10:32;102594.59;;;5.25;53.53
53514;BME280;39768;54.148;12.174;2024-03-06T15:14:34;102603.53;;;5.22;51.01
53514;BME280;39768;54.148;12.174;2024-03-06T15:18:46;102596.31;;;4.75;54.94
53514;BME280;39768;54.148;12.174;2024-03-06T15:22:50;102603.47;;;4.96;54.01
53514;BME280;39768;54.148;12.174;2024-03-06T15:26:52;102598.16;;;5.18;52.38
53514;BME280;39768;54.148;12.174;2024-03-06T15:30:54;102605.25;;;4.97;52.90
53514;BME280;39768;54.148;12.174;2024-03-06T15:34:58;102599.91;;;4.97;52.28
53514;BME280;39768;54.148;12.174;2024-03-06T15:39:00;102594.50;;;4.61;52.63
53514;BME280;39768;54.148;12.174;2024-03-06T15:43:02;102599.94;;;5.05;53.49
53514;BME280;39768;54.148;12.174;2024-03-06T15:47:05;102608.88;;;5.22;52.26
53514;BME280;39768;54.148;12.174;2024-03-06T15:51:11;102606.91;;;4.50;53.58
53514;BME280;39768;54.148;12.174;2024-03-06T15:55:13;102612.38;;;4.88;54.83
53514;BME280;39768;54.148;12.174;2024-03-06T15:59:15;102601.78;;;5.45;52.32
53514;BME280;39768;54.148;12.174;2024-03-06T16:03:17;102605.66;;;3.88;57.69
53514;BME280;39768;54.148;12.174;2024-03-06T16:07:18;102599.03;;;5.03;54.08
53514;BME280;39768;54.148;12.174;2024-03-06T16:11:20;102603.91;;;3.90;56.50
53514;BME280;39768;54.148;12.174;2024-03-06T16:15:22;102612.88;;;4.04;58.26
53514;BME280;39768;54.148;12.174;2024-03-06T16:19:24;102618.06;;;3.85;57.84
53514;BME280;39768;54.148;12.174;2024-03-06T16:23:38;102627.97;;;4.02;56.73
53514;BME280;39768;54.148;12.174;2024-03-06T16:27:40;102625.13;;;3.80;59.99
53514;BME280;39768;54.148;12.174;2024-03-06T16:31:42;102628.31;;;4.62;55.72
53514;BME280;39768;54.148;12.174;2024-03-06T16:35:45;102635.47;;;4.83;54.75
53514;BME280;39768;54.148;12.174;2024-03-06T16:39:47;102631.00;;;4.74;57.59
53514;BME280;39768;54.148;12.174;2024-03-06T16:43:49;102624.31;;;3.88;61.70
53514;BME280;39768;54.148;12.174;2024-03-06T16:47:51;102637.06;;;3.21;64.17
53514;BME280;39768;54.148;12.174;2024-03-06T16:51:53;102633.66;;;4.72;59.98
53514;BME280;39768;54.148;12.174;2024-03-06T16:55:55;102638.59;;;3.96;64.32
53514;BME280;39768;54.148;12.174;2024-03-06T16:59:57;102638.66;;;4.04;64.24
53514;BME280;39768;54.148;12.174;2024-03-06T17:03:59;102647.53;;;4.04;64.90
53514;BME280;39768;54.148;12.174;2024-03-06T17:08:01;102644.22;;;3.25;66.38
53514;BME280;39768;54.148;12.174;2024-03-06T17:12:05;102647.03;;;4.82;61.69
53514;BME280;39768;54.148;12.174;2024-03-06T17:16:08;102653.88;;;4.19;65.09
53514;BME280;39768;54.148;12.174;2024-03-06T17:20:10;102656.53;;;4.16;65.45
53514;BME280;39768;54.148;12.174;2024-03-06T17:24:12;102657.47;;;4.27;61.91
53514;BME280;39768;54.148;12.174;2024-03-06T17:28:14;102660.28;;;4.54;60.70
53514;BME280;39768;54.148;12.174;2024-03-06T17:32:18;102661.09;;;4.35;65.05
53514;BME280;39768;54.148;12.174;2024-03-06T17:36:23;102677.44;;;5.19;60.73
53514;BME280;39768;54.148;12.174;2024-03-06T17:40:24;102682.19;;;4.07;65.62
53514;BME280;39768;54.148;12.174;2024-03-06T17:44:26;102674.72;;;5.02;61.06
53514;BME280;39768;54.148;12.174;2024-03-06T17:48:31;102676.00;;;4.08;67.52
53514;BME280;39768;54.148;12.174;2024-03-06T17:52:33;102681.81;;;3.56;69.85
53514;BME280;39768;54.148;12.174;2024-03-06T17:56:34;102686.22;;;3.55;67.90
53514;BME280;39768;54.148;12.174;2024-03-06T18:00:36;102683.25;;;4.26;64.53
53514;BME280;39768;54.148;12.174;2024-03-06T18:04:38;102685.06;;;3.26;69.70
53514;BME280;39768;54.148;12.174;2024-03-06T18:08:40;102696.50;;;3.16;73.16
53514;BME280;39768;54.148;12.174;2024-03-06T18:12:42;102689.34;;;2.45;79.96
53514;BME280;39768;54.148;12.174;2024-03-06T18:16:44;102686.63;;;1.83;82.79
53514;BME280;39768;54.148;12.174;2024-03-06T18:20:46;102690.41;;;2.58;81.94
53514;BME280;39768;54.148;12.174;2024-03-06T18:24:48;102684.75;;;2.98;79.94
53514;BME280;39768;54.148;12.174;2024-03-06T18:28:50;102686.47;;;2.28;79.68
53514;BME280;39768;54.148;12.174;2024-03-06T18:32:52;102698.31;;;1.42;86.52
53514;BME280;39768;54.148;12.174;2024-03-06T18:36:53;102690.44;;;1.98;83.36
53514;BME280;39768;54.148;12.174;2024-03-06T18:40:55;102697.28;;;1.83;82.10
53514;BME280;39768;54.148;12.174;2024-03-06T18:44:57;102703.31;;;2.29;80.27
53514;BME280;39768;54.148;12.174;2024-03-06T18:48:59;102699.53;;;3.52;74.17
53514;BME280;39768;54.148;12.174;2024-03-06T18:53:01;102706.50;;;2.67;74.79
53514;BME280;39768;54.148;12.174;2024-03-06T18:57:03;102706.97;;;2.99;77.43
53514;BME280;39768;54.148;12.174;2024-03-06T19:01:05;102717.09;;;2.04;78.24
53514;BME280;39768;54.148;12.174;2024-03-06T19:05:07;102715.09;;;2.48;79.84
53514;BME280;39768;54.148;12.174;2024-03-06T19:09:09;102718.28;;;1.20;83.40
53514;BME280;39768;54.148;12.174;2024-03-06T19:13:11;102713.63;;;2.68;75.93
53514;BME280;39768;54.148;12.174;2024-03-06T19:17:13;102719.78;;;1.54;79.81
53514;BME280;39768;54.148;12.174;2024-03-06T19:21:15;102720.28;;;1.32;84.59
53514;BME280;39768;54.148;12.174;2024-03-06T19:25:18;102727.19;;;1.22;83.49
53514;BME280;39768;54.148;12.174;2024-03-06T19:29:21;102731.75;;;1.31;81.84
53514;BME280;39768;54.148;12.174;2024-03-06T19:33:22;102725.53;;;1.78;82.94
53514;BME280;39768;54.148;12.174;2024-03-06T19:37:24;102735.38;;;1.84;78.76
53514;BME280;39768;54.148;12.174;2024-03-06T19:41:28;102738.44;;;2.67;70.94
53514;BME280;39768;54.148;12.174;2024-03-06T19:45:30;102746.38;;;1.55;74.92
53514;BME280;39768;54.148;12.174;2024-03-06T19:49:33;102747.16;;;1.98;72.82
53514;BME280;39768;54.148;12.174;2024-03-06T19:53:35;102748.19;;;2.66;68.37
53514;BME280;39768;54.148;12.174;2024-03-06T19:57:36;102751.22;;;1.31;75.67
53514;BME280;39768;54.148;12.174;2024-03-06T20:01:38;102747.63;;;1.28;76.40
53514;BME280;39768;54.148;12.174;2024-03-06T20:05:40;102751.53;;;1.46;72.13
53514;BME280;39768;54.148;12.174;2024-03-06T20:09:42;102755.06;;;1.47;75.61
53514;BME280;39768;54.148;12.174;2024-03-06T20:13:44;102757.94;;;1.14;76.58
53514;BME280;39768;54.148;12.174;2024-03-06T20:17:45;102755.78;;;0.96;74.44
53514;BME280;39768;54.148;12.174;2024-03-06T20:21:47;102760.56;;;0.72;77.85
53514;BME280;39768;54.148;12.174;2024-03-06T20:25:49;102757.78;;;1.50;74.50
53514;BME280;39768;54.148;12.174;2024-03-06T20:29:51;102756.25;;;0.75;72.96
53514;BME280;39768;54.148;12.174;2024-03-06T20:33:53;102750.13;;;0.79;78.01
53514;BME280;39768;54.148;12.174;2024-03-06T20:37:56;102761.81;;;0.48;75.45
53514;BME280;39768;54.148;12.174;2024-03-06T20:41:58;102755.34;;;1.17;73.59
53514;BME280;39768;54.148;12.174;2024-03-06T20:45:59;102766.81;;;0.36;77.75
53514;BME280;39768;54.148;12.174;2024-03-06T20:50:01;102760.72;;;1.64;73.86
53514;BME280;39768;54.148;12.174;2024-03-06T20:54:04;102770.66;;;0.88;74.03
53514;BME280;39768;54.148;12.174;2024-03-06T20:58:06;102767.47;;;1.04;74.88
53514;BME280;39768;54.148;12.174;2024-03-06T21:02:07;102764.31;;;1.20;75.16
53514;BME280;39768;54.148;12.174;2024-03-06T21:06:09;102776.22;;;0.60;74.57
53514;BME280;39768;54.148;12.174;2024-03-06T21:10:14;102772.13;;;0.36;76.81
53514;BME280;39768;54.148;12.174;2024-03-06T21:14:17;102775.56;;;0.70;75.36